sensor_id;sensor_type;location;lat;lon;timestamp;temperature;humidity
80234;DHT22;69712;42.142;24.766;2023-12-28T00:00:49;8.80;58.10
80234;DHT22;69712;42.142;24.766;2023-12-28T00:03:15;8.80;58.40
80234;DHT22;69712;42.142;24.766;2023-12-28T00:05:40;8.70;58.90
80234;DHT22;69712;42.142;24.766;2023-12-28T00:08:06;8.70;59.20
80234;DHT22;69712;42.142;24.766;2023-12-28T00:10:32;8.30;60.30
80234;DHT22;69712;42.142;24.766;2023-12-28T00:12:58;8.20;61.00
80234;DHT22;69712;42.142;24.766;2023-12-28T00:15:24;8.40;61.10
80234;DHT22;69712;42.142;24.766;2023-12-28T00:17:49;8.50;60.30
80234;DHT22;69712;42.142;24.766;2023-12-28T00:20:15;8.60;59.60
80234;DHT22;69712;42.142;24.766;2023-12-28T00:22:41;8.50;60.00
80234;DHT22;69712;42.142;24.766;2023-12-28T00:25:07;8.60;60.00
80234;DHT22;69712;42.142;24.766;2023-12-28T00:27:33;8.60;59.50
80234;DHT22;69712;42.142;24.766;2023-12-28T00:30:05;8.70;59.40
80234;DHT22;69712;42.142;24.766;2023-12-28T00:32:31;8.70;59.60
80234;DHT22;69712;42.142;24.766;2023-12-28T00:34:56;8.70;59.50
80234;DHT22;69712;42.142;24.766;2023-12-28T00:37:22;8.60;60.10
80234;DHT22;69712;42.142;24.766;2023-12-28T00:39:48;8.60;59.90
80234;DHT22;69712;42.142;24.766;2023-12-28T00:42:15;8.70;59.90
80234;DHT22;69712;42.142;24.766;2023-12-28T00:44:41;8.60;59.90
80234;DHT22;69712;42.142;24.766;2023-12-28T00:47:07;8.60;59.40
80234;DHT22;69712;42.142;24.766;2023-12-28T00:49:33;8.60;59.90
80234;DHT22;69712;42.142;24.766;2023-12-28T00:51:58;8.60;59.90
80234;DHT22;69712;42.142;24.766;2023-12-28T00:54:24;8.50;59.90
80234;DHT22;69712;42.142;24.766;2023-12-28T00:56:50;8.50;60.00
80234;DHT22;69712;42.142;24.766;2023-12-28T00:59:16;8.60;60.00
80234;DHT22;69712;42.142;24.766;2023-12-28T01:01:42;8.60;59.20
80234;DHT22;69712;42.142;24.766;2023-12-28T01:04:07;8.50;59.20
80234;DHT22;69712;42.142;24.766;2023-12-28T01:06:33;8.50;58.50
80234;DHT22;69712;42.142;24.766;2023-12-28T01:08:59;8.50;57.60
80234;DHT22;69712;42.142;24.766;2023-12-28T01:11:25;8.50;57.20
80234;DHT22;69712;42.142;24.766;2023-12-28T01:13:51;8.50;57.20
80234;DHT22;69712;42.142;24.766;2023-12-28T01:16:17;8.70;56.60
80234;DHT22;69712;42.142;24.766;2023-12-28T01:18:43;8.70;56.70
80234;DHT22;69712;42.142;24.766;2023-12-28T01:21:09;8.70;56.90
80234;DHT22;69712;42.142;24.766;2023-12-28T01:23:35;8.70;56.70
80234;DHT22;69712;42.142;24.766;2023-12-28T01:26:00;8.80;56.30
80234;DHT22;69712;42.142;24.766;2023-12-28T01:28:27;8.90;56.10
80234;DHT22;69712;42.142;24.766;2023-12-28T01:30:53;8.90;55.80
80234;DHT22;69712;42.142;24.766;2023-12-28T01:33:19;8.90;56.20
80234;DHT22;69712;42.142;24.766;2023-12-28T01:35:45;9.00;56.00
80234;DHT22;69712;42.142;24.766;2023-12-28T01:38:10;9.00;56.10
80234;DHT22;69712;42.142;24.766;2023-12-28T01:40:36;8.90;56.00
80234;DHT22;69712;42.142;24.766;2023-12-28T01:43:02;8.60;55.70
80234;DHT22;69712;42.142;24.766;2023-12-28T01:45:28;8.40;57.40
80234;DHT22;69712;42.142;24.766;2023-12-28T01:47:56;8.00;58.30
80234;DHT22;69712;42.142;24.766;2023-12-28T01:50:24;7.90;59.50
80234;DHT22;69712;42.142;24.766;2023-12-28T01:52:51;7.80;60.10
80234;DHT22;69712;42.142;24.766;2023-12-28T01:55:17;7.80;60.60
80234;DHT22;69712;42.142;24.766;2023-12-28T01:57:45;7.60;61.00
80234;DHT22;69712;42.142;24.766;2023-12-28T02:00:11;7.40;61.30
80234;DHT22;69712;42.142;24.766;2023-12-28T02:02:37;7.40;61.60
80234;DHT22;69712;42.142;24.766;2023-12-28T02:05:03;7.50;61.00
80234;DHT22;69712;42.142;24.766;2023-12-28T02:07:30;7.60;60.40
80234;DHT22;69712;42.142;24.766;2023-12-28T02:09:57;7.60;60.80
80234;DHT22;69712;42.142;24.766;2023-12-28T02:12:22;7.20;60.80
80234;DHT22;69712;42.142;24.766;2023-12-28T02:14:48;6.90;61.80
80234;DHT22;69712;42.142;24.766;2023-12-28T02:17:23;6.80;62.80
80234;DHT22;69712;42.142;24.766;2023-12-28T02:19:56;6.70;63.20
80234;DHT22;69712;42.142;24.766;2023-12-28T02:22:26;6.90;62.80
80234;DHT22;69712;42.142;24.766;2023-12-28T02:25:06;7.00;62.70
80234;DHT22;69712;42.142;24.766;2023-12-28T02:30:05;7.10;62.10
80234;DHT22;69712;42.142;24.766;2023-12-28T02:38:06;7.30;61.20
80234;DHT22;69712;42.142;24.766;2023-12-28T02:40:39;7.30;61.90
80234;DHT22;69712;42.142;24.766;2023-12-28T02:43:06;7.00;62.60
80234;DHT22;69712;42.142;24.766;2023-12-28T02:45:32;6.90;63.10
80234;DHT22;69712;42.142;24.766;2023-12-28T02:47:58;6.90;63.10
80234;DHT22;69712;42.142;24.766;2023-12-28T02:50:24;7.00;62.80
80234;DHT22;69712;42.142;24.766;2023-12-28T02:52:50;7.10;62.40
80234;DHT22;69712;42.142;24.766;2023-12-28T02:55:15;7.20;61.50
80234;DHT22;69712;42.142;24.766;2023-12-28T02:57:43;7.10;61.10
80234;DHT22;69712;42.142;24.766;2023-12-28T03:00:09;7.10;61.80
80234;DHT22;69712;42.142;24.766;2023-12-28T03:02:38;7.00;62.70
80234;DHT22;69712;42.142;24.766;2023-12-28T03:05:04;6.80;62.80
80234;DHT22;69712;42.142;24.766;2023-12-28T03:07:31;6.90;62.60
80234;DHT22;69712;42.142;24.766;2023-12-28T03:09:57;7.00;62.90
80234;DHT22;69712;42.142;24.766;2023-12-28T03:12:23;6.90;62.30
80234;DHT22;69712;42.142;24.766;2023-12-28T03:14:49;7.10;62.10
80234;DHT22;69712;42.142;24.766;2023-12-28T03:17:15;7.00;62.00
80234;DHT22;69712;42.142;24.766;2023-12-28T03:19:41;7.10;62.40
80234;DHT22;69712;42.142;24.766;2023-12-28T03:22:07;7.00;61.50
80234;DHT22;69712;42.142;24.766;2023-12-28T03:24:32;6.90;62.10
80234;DHT22;69712;42.142;24.766;2023-12-28T03:26:58;6.80;63.20
80234;DHT22;69712;42.142;24.766;2023-12-28T03:29:24;6.80;63.20
80234;DHT22;69712;42.142;24.766;2023-12-28T03:31:50;6.70;63.60
80234;DHT22;69712;42.142;24.766;2023-12-28T03:34:16;6.80;63.50
80234;DHT22;69712;42.142;24.766;2023-12-28T03:36:42;6.90;63.30
80234;DHT22;69712;42.142;24.766;2023-12-28T03:39:08;6.90;63.10
80234;DHT22;69712;42.142;24.766;2023-12-28T03:41:34;6.90;63.40
80234;DHT22;69712;42.142;24.766;2023-12-28T03:43:59;7.00;63.30
80234;DHT22;69712;42.142;24.766;2023-12-28T03:46:26;7.00;63.20
80234;DHT22;69712;42.142;24.766;2023-12-28T03:48:53;6.90;63.50
80234;DHT22;69712;42.142;24.766;2023-12-28T03:51:18;6.70;63.90
80234;DHT22;69712;42.142;24.766;2023-12-28T03:53:44;6.70;64.20
80234;DHT22;69712;42.142;24.766;2023-12-28T03:56:24;6.60;64.10
80234;DHT22;69712;42.142;24.766;2023-12-28T03:58:50;6.30;65.80
80234;DHT22;69712;42.142;24.766;2023-12-28T04:01:20;6.20;65.70
80234;DHT22;69712;42.142;24.766;2023-12-28T04:03:46;6.20;65.30
80234;DHT22;69712;42.142;24.766;2023-12-28T04:06:13;6.20;65.20
80234;DHT22;69712;42.142;24.766;2023-12-28T04:08:40;6.30;64.40
80234;DHT22;69712;42.142;24.766;2023-12-28T04:11:06;6.40;64.10
80234;DHT22;69712;42.142;24.766;2023-12-28T04:13:31;6.30;63.90
80234;DHT22;69712;42.142;24.766;2023-12-28T04:15:57;6.40;64.20
80234;DHT22;69712;42.142;24.766;2023-12-28T04:18:23;6.50;64.20
80234;DHT22;69712;42.142;24.766;2023-12-28T04:20:49;6.50;64.30
80234;DHT22;69712;42.142;24.766;2023-12-28T04:23:15;6.40;64.60
80234;DHT22;69712;42.142;24.766;2023-12-28T04:25:41;6.40;64.20
80234;DHT22;69712;42.142;24.766;2023-12-28T04:28:07;6.50;63.70
80234;DHT22;69712;42.142;24.766;2023-12-28T04:30:33;6.50;63.60
80234;DHT22;69712;42.142;24.766;2023-12-28T04:33:00;6.40;63.70
80234;DHT22;69712;42.142;24.766;2023-12-28T04:35:26;6.40;64.50
80234;DHT22;69712;42.142;24.766;2023-12-28T04:37:51;6.30;64.80
80234;DHT22;69712;42.142;24.766;2023-12-28T04:40:17;6.30;65.10
80234;DHT22;69712;42.142;24.766;2023-12-28T04:42:43;6.40;65.10
80234;DHT22;69712;42.142;24.766;2023-12-28T04:45:10;6.30;64.80
80234;DHT22;69712;42.142;24.766;2023-12-28T04:47:36;6.20;64.80
80234;DHT22;69712;42.142;24.766;2023-12-28T04:50:03;6.20;65.90
80234;DHT22;69712;42.142;24.766;2023-12-28T04:52:28;6.10;66.50
80234;DHT22;69712;42.142;24.766;2023-12-28T04:54:54;5.90;68.40
80234;DHT22;69712;42.142;24.766;2023-12-28T04:57:20;6.10;67.10
80234;DHT22;69712;42.142;24.766;2023-12-28T04:59:46;6.10;67.00
80234;DHT22;69712;42.142;24.766;2023-12-28T05:02:12;6.00;66.90
80234;DHT22;69712;42.142;24.766;2023-12-28T05:04:38;6.00;66.00
80234;DHT22;69712;42.142;24.766;2023-12-28T05:07:06;6.20;65.40
80234;DHT22;69712;42.142;24.766;2023-12-28T05:09:32;6.30;64.50
80234;DHT22;69712;42.142;24.766;2023-12-28T05:12:04;6.30;64.30
80234;DHT22;69712;42.142;24.766;2023-12-28T05:14:35;6.30;64.80
80234;DHT22;69712;42.142;24.766;2023-12-28T05:17:01;6.30;64.00
80234;DHT22;69712;42.142;24.766;2023-12-28T05:19:27;6.40;66.30
80234;DHT22;69712;42.142;24.766;2023-12-28T05:21:53;6.50;64.40
80234;DHT22;69712;42.142;24.766;2023-12-28T05:24:19;6.40;63.90
80234;DHT22;69712;42.142;24.766;2023-12-28T05:26:44;6.40;62.90
80234;DHT22;69712;42.142;24.766;2023-12-28T05:29:10;6.40;62.60
80234;DHT22;69712;42.142;24.766;2023-12-28T05:31:36;6.50;62.60
80234;DHT22;69712;42.142;24.766;2023-12-28T05:34:02;6.40;62.50
80234;DHT22;69712;42.142;24.766;2023-12-28T05:36:27;6.40;62.30
80234;DHT22;69712;42.142;24.766;2023-12-28T05:38:54;6.40;61.70
80234;DHT22;69712;42.142;24.766;2023-12-28T05:41:20;6.50;61.70
80234;DHT22;69712;42.142;24.766;2023-12-28T05:44:14;6.50;61.50
80234;DHT22;69712;42.142;24.766;2023-12-28T05:46:49;6.60;61.00
80234;DHT22;69712;42.142;24.766;2023-12-28T05:49:18;6.60;60.50
80234;DHT22;69712;42.142;24.766;2023-12-28T05:51:44;6.60;60.60
80234;DHT22;69712;42.142;24.766;2023-12-28T05:54:10;6.60;61.30
80234;DHT22;69712;42.142;24.766;2023-12-28T05:56:36;6.50;61.40
80234;DHT22;69712;42.142;24.766;2023-12-28T05:59:01;6.50;61.20
80234;DHT22;69712;42.142;24.766;2023-12-28T06:01:27;6.50;60.30
80234;DHT22;69712;42.142;24.766;2023-12-28T06:03:53;6.40;60.40
80234;DHT22;69712;42.142;24.766;2023-12-28T06:06:19;6.50;60.60
80234;DHT22;69712;42.142;24.766;2023-12-28T06:08:46;6.60;60.50
80234;DHT22;69712;42.142;24.766;2023-12-28T06:11:12;6.50;60.30
80234;DHT22;69712;42.142;24.766;2023-12-28T06:13:38;6.60;60.30
80234;DHT22;69712;42.142;24.766;2023-12-28T06:16:04;6.50;60.00
80234;DHT22;69712;42.142;24.766;2023-12-28T06:18:30;6.50;60.20
80234;DHT22;69712;42.142;24.766;2023-12-28T06:20:56;6.60;60.30
80234;DHT22;69712;42.142;24.766;2023-12-28T06:23:22;6.50;60.50
80234;DHT22;69712;42.142;24.766;2023-12-28T06:25:48;6.40;61.70
80234;DHT22;69712;42.142;24.766;2023-12-28T06:28:13;6.30;62.20
80234;DHT22;69712;42.142;24.766;2023-12-28T06:30:39;6.30;62.10
80234;DHT22;69712;42.142;24.766;2023-12-28T06:33:05;6.40;62.20
80234;DHT22;69712;42.142;24.766;2023-12-28T06:35:31;6.50;62.30
80234;DHT22;69712;42.142;24.766;2023-12-28T06:37:56;6.70;61.40
80234;DHT22;69712;42.142;24.766;2023-12-28T06:40:22;6.80;61.10
80234;DHT22;69712;42.142;24.766;2023-12-28T06:42:48;6.90;61.30
80234;DHT22;69712;42.142;24.766;2023-12-28T06:45:14;6.90;61.80
80234;DHT22;69712;42.142;24.766;2023-12-28T06:47:40;6.90;61.50
80234;DHT22;69712;42.142;24.766;2023-12-28T06:50:06;7.10;60.80
80234;DHT22;69712;42.142;24.766;2023-12-28T06:52:32;7.30;60.00
80234;DHT22;69712;42.142;24.766;2023-12-28T06:54:58;7.60;58.40
80234;DHT22;69712;42.142;24.766;2023-12-28T06:57:24;8.10;57.00
80234;DHT22;69712;42.142;24.766;2023-12-28T06:59:50;8.70;54.70
80234;DHT22;69712;42.142;24.766;2023-12-28T07:02:15;9.30;53.70
80234;DHT22;69712;42.142;24.766;2023-12-28T07:04:41;9.20;54.20
80234;DHT22;69712;42.142;24.766;2023-12-28T07:07:07;9.10;54.40
80234;DHT22;69712;42.142;24.766;2023-12-28T07:09:33;9.10;54.30
80234;DHT22;69712;42.142;24.766;2023-12-28T07:11:59;8.90;56.30
80234;DHT22;69712;42.142;24.766;2023-12-28T07:14:25;9.00;56.50
80234;DHT22;69712;42.142;24.766;2023-12-28T07:16:50;9.20;55.10
80234;DHT22;69712;42.142;24.766;2023-12-28T07:19:16;9.40;55.00
80234;DHT22;69712;42.142;24.766;2023-12-28T07:21:42;9.50;54.30
80234;DHT22;69712;42.142;24.766;2023-12-28T07:24:08;9.30;55.20
80234;DHT22;69712;42.142;24.766;2023-12-28T07:26:33;9.60;54.60
80234;DHT22;69712;42.142;24.766;2023-12-28T07:28:59;10.10;54.20
80234;DHT22;69712;42.142;24.766;2023-12-28T07:31:26;10.10;52.80
80234;DHT22;69712;42.142;24.766;2023-12-28T07:33:52;11.10;50.80
80234;DHT22;69712;42.142;24.766;2023-12-28T07:36:18;11.40;48.80
80234;DHT22;69712;42.142;24.766;2023-12-28T07:38:44;11.60;49.00
80234;DHT22;69712;42.142;24.766;2023-12-28T07:41:10;11.70;47.60
80234;DHT22;69712;42.142;24.766;2023-12-28T07:43:36;11.80;47.40
80234;DHT22;69712;42.142;24.766;2023-12-28T07:46:02;11.90;46.40
80234;DHT22;69712;42.142;24.766;2023-12-28T07:48:28;12.00;46.60
80234;DHT22;69712;42.142;24.766;2023-12-28T07:51:03;12.20;46.00
80234;DHT22;69712;42.142;24.766;2023-12-28T07:53:29;12.30;45.40
80234;DHT22;69712;42.142;24.766;2023-12-28T07:55:55;12.40;45.40
80234;DHT22;69712;42.142;24.766;2023-12-28T07:58:21;12.50;44.80
80234;DHT22;69712;42.142;24.766;2023-12-28T08:00:47;13.40;43.30
80234;DHT22;69712;42.142;24.766;2023-12-28T08:03:14;13.90;42.70
80234;DHT22;69712;42.142;24.766;2023-12-28T08:05:41;14.90;40.90
80234;DHT22;69712;42.142;24.766;2023-12-28T08:08:07;16.20;38.00
80234;DHT22;69712;42.142;24.766;2023-12-28T08:10:33;17.00;36.40
80234;DHT22;69712;42.142;24.766;2023-12-28T08:12:59;17.80;35.20
80234;DHT22;69712;42.142;24.766;2023-12-28T08:15:24;18.50;33.60
80234;DHT22;69712;42.142;24.766;2023-12-28T08:17:50;18.00;33.80
80234;DHT22;69712;42.142;24.766;2023-12-28T08:20:16;18.70;32.40
80234;DHT22;69712;42.142;24.766;2023-12-28T08:22:42;18.80;30.90
80234;DHT22;69712;42.142;24.766;2023-12-28T08:25:08;18.90;31.40
80234;DHT22;69712;42.142;24.766;2023-12-28T08:27:33;19.60;30.50
80234;DHT22;69712;42.142;24.766;2023-12-28T08:29:59;20.10;29.90
80234;DHT22;69712;42.142;24.766;2023-12-28T08:32:25;19.90;29.70
80234;DHT22;69712;42.142;24.766;2023-12-28T08:34:51;21.20;29.40
80234;DHT22;69712;42.142;24.766;2023-12-28T08:37:16;21.90;27.80
80234;DHT22;69712;42.142;24.766;2023-12-28T08:39:42;22.10;27.60
80234;DHT22;69712;42.142;24.766;2023-12-28T08:42:08;23.50;26.10
80234;DHT22;69712;42.142;24.766;2023-12-28T08:44:34;23.70;25.30
80234;DHT22;69712;42.142;24.766;2023-12-28T08:47:02;23.60;26.90
80234;DHT22;69712;42.142;24.766;2023-12-28T08:49:27;23.10;25.30
80234;DHT22;69712;42.142;24.766;2023-12-28T08:51:54;22.90;26.20
80234;DHT22;69712;42.142;24.766;2023-12-28T08:54:20;23.40;25.40
80234;DHT22;69712;42.142;24.766;2023-12-28T08:56:46;23.70;25.60
80234;DHT22;69712;42.142;24.766;2023-12-28T08:59:14;22.90;25.50
80234;DHT22;69712;42.142;24.766;2023-12-28T09:01:39;22.90;26.30
80234;DHT22;69712;42.142;24.766;2023-12-28T09:04:05;23.90;25.10
80234;DHT22;69712;42.142;24.766;2023-12-28T09:06:31;23.70;25.00
80234;DHT22;69712;42.142;24.766;2023-12-28T09:08:57;23.60;25.20
80234;DHT22;69712;42.142;24.766;2023-12-28T09:11:23;24.40;25.40
80234;DHT22;69712;42.142;24.766;2023-12-28T09:13:49;24.10;23.80
80234;DHT22;69712;42.142;24.766;2023-12-28T09:16:15;24.20;25.20
80234;DHT22;69712;42.142;24.766;2023-12-28T09:18:42;24.90;24.70
80234;DHT22;69712;42.142;24.766;2023-12-28T09:21:08;24.80;23.50
80234;DHT22;69712;42.142;24.766;2023-12-28T09:23:35;25.10;23.20
80234;DHT22;69712;42.142;24.766;2023-12-28T09:26:02;24.60;23.20
80234;DHT22;69712;42.142;24.766;2023-12-28T09:28:32;24.30;24.00
80234;DHT22;69712;42.142;24.766;2023-12-28T09:30:57;24.80;23.90
80234;DHT22;69712;42.142;24.766;2023-12-28T09:33:23;24.30;23.60
80234;DHT22;69712;42.142;24.766;2023-12-28T09:35:49;24.10;24.50
80234;DHT22;69712;42.142;24.766;2023-12-28T09:38:15;24.80;24.00
80234;DHT22;69712;42.142;24.766;2023-12-28T09:40:42;25.00;24.20
80234;DHT22;69712;42.142;24.766;2023-12-28T09:43:23;24.50;23.10
80234;DHT22;69712;42.142;24.766;2023-12-28T09:45:50;24.40;23.60
80234;DHT22;69712;42.142;24.766;2023-12-28T09:48:17;23.90;24.40
80234;DHT22;69712;42.142;24.766;2023-12-28T09:50:54;24.40;24.60
80234;DHT22;69712;42.142;24.766;2023-12-28T09:53:24;24.80;24.00
80234;DHT22;69712;42.142;24.766;2023-12-28T09:55:51;24.60;24.10
80234;DHT22;69712;42.142;24.766;2023-12-28T09:58:18;24.90;23.50
80234;DHT22;69712;42.142;24.766;2023-12-28T10:00:49;24.20;24.60
80234;DHT22;69712;42.142;24.766;2023-12-28T10:03:18;24.90;23.80
80234;DHT22;69712;42.142;24.766;2023-12-28T10:05:44;25.10;23.70
80234;DHT22;69712;42.142;24.766;2023-12-28T10:08:14;25.70;23.10
80234;DHT22;69712;42.142;24.766;2023-12-28T10:10:41;26.10;22.50
80234;DHT22;69712;42.142;24.766;2023-12-28T10:13:08;25.90;22.30
80234;DHT22;69712;42.142;24.766;2023-12-28T10:15:35;25.50;23.60
80234;DHT22;69712;42.142;24.766;2023-12-28T10:18:01;25.80;22.40
80234;DHT22;69712;42.142;24.766;2023-12-28T10:20:28;26.20;22.60
80234;DHT22;69712;42.142;24.766;2023-12-28T10:22:54;25.50;22.30
80234;DHT22;69712;42.142;24.766;2023-12-28T10:25:21;25.30;22.60
80234;DHT22;69712;42.142;24.766;2023-12-28T10:27:50;26.00;22.90
80234;DHT22;69712;42.142;24.766;2023-12-28T10:30:34;25.20;22.50
80234;DHT22;69712;42.142;24.766;2023-12-28T10:33:00;25.10;23.00
80234;DHT22;69712;42.142;24.766;2023-12-28T10:35:26;25.30;23.30
80234;DHT22;69712;42.142;24.766;2023-12-28T10:37:52;24.00;23.50
80234;DHT22;69712;42.142;24.766;2023-12-28T10:40:21;24.00;23.90
80234;DHT22;69712;42.142;24.766;2023-12-28T10:42:52;24.40;24.60
80234;DHT22;69712;42.142;24.766;2023-12-28T10:45:18;23.50;24.00
80234;DHT22;69712;42.142;24.766;2023-12-28T10:47:57;23.30;25.00
80234;DHT22;69712;42.142;24.766;2023-12-28T10:50:27;22.20;26.00
80234;DHT22;69712;42.142;24.766;2023-12-28T10:53:00;21.00;27.10
80234;DHT22;69712;42.142;24.766;2023-12-28T10:55:50;21.10;28.20
80234;DHT22;69712;42.142;24.766;2023-12-28T10:58:24;22.00;27.10
80234;DHT22;69712;42.142;24.766;2023-12-28T11:00:59;21.90;26.60
80234;DHT22;69712;42.142;24.766;2023-12-28T11:03:31;21.50;26.60
80234;DHT22;69712;42.142;24.766;2023-12-28T11:06:00;21.70;26.90
80234;DHT22;69712;42.142;24.766;2023-12-28T11:08:29;21.70;26.40
80234;DHT22;69712;42.142;24.766;2023-12-28T11:10:55;21.60;26.80
80234;DHT22;69712;42.142;24.766;2023-12-28T11:13:22;21.70;27.00
80234;DHT22;69712;42.142;24.766;2023-12-28T11:15:48;21.80;26.70
80234;DHT22;69712;42.142;24.766;2023-12-28T11:18:16;21.40;27.30
80234;DHT22;69712;42.142;24.766;2023-12-28T11:20:46;21.20;27.60
80234;DHT22;69712;42.142;24.766;2023-12-28T11:23:12;21.10;28.50
80234;DHT22;69712;42.142;24.766;2023-12-28T11:25:38;20.40;28.10
80234;DHT22;69712;42.142;24.766;2023-12-28T11:28:11;20.60;28.50
80234;DHT22;69712;42.142;24.766;2023-12-28T11:30:37;20.50;29.10
80234;DHT22;69712;42.142;24.766;2023-12-28T11:33:04;20.60;28.10
80234;DHT22;69712;42.142;24.766;2023-12-28T11:35:41;20.40;27.80
80234;DHT22;69712;42.142;24.766;2023-12-28T11:38:09;20.00;28.40
80234;DHT22;69712;42.142;24.766;2023-12-28T11:40:46;19.60;28.80
80234;DHT22;69712;42.142;24.766;2023-12-28T11:43:20;19.80;29.00
80234;DHT22;69712;42.142;24.766;2023-12-28T11:45:55;19.60;28.80
80234;DHT22;69712;42.142;24.766;2023-12-28T11:48:24;19.50;29.10
80234;DHT22;69712;42.142;24.766;2023-12-28T11:51:00;19.40;28.80
80234;DHT22;69712;42.142;24.766;2023-12-28T11:53:26;19.20;29.40
80234;DHT22;69712;42.142;24.766;2023-12-28T11:55:59;19.30;29.30
80234;DHT22;69712;42.142;24.766;2023-12-28T11:58:26;19.40;29.20
80234;DHT22;69712;42.142;24.766;2023-12-28T12:00:52;19.10;29.30
80234;DHT22;69712;42.142;24.766;2023-12-28T12:03:18;19.30;29.50
80234;DHT22;69712;42.142;24.766;2023-12-28T12:05:45;18.90;29.30
80234;DHT22;69712;42.142;24.766;2023-12-28T12:08:11;18.50;29.90
80234;DHT22;69712;42.142;24.766;2023-12-28T12:10:42;18.40;30.20
80234;DHT22;69712;42.142;24.766;2023-12-28T12:13:08;18.10;30.60
80234;DHT22;69712;42.142;24.766;2023-12-28T12:15:34;17.70;31.40
80234;DHT22;69712;42.142;24.766;2023-12-28T12:18:01;17.70;31.90
80234;DHT22;69712;42.142;24.766;2023-12-28T12:20:28;17.50;33.30
80234;DHT22;69712;42.142;24.766;2023-12-28T12:23:00;17.10;33.30
80234;DHT22;69712;42.142;24.766;2023-12-28T12:25:26;17.00;33.30
80234;DHT22;69712;42.142;24.766;2023-12-28T12:27:54;16.90;33.00
80234;DHT22;69712;42.142;24.766;2023-12-28T12:30:20;17.10;33.00
80234;DHT22;69712;42.142;24.766;2023-12-28T12:32:46;16.90;32.50
80234;DHT22;69712;42.142;24.766;2023-12-28T12:35:12;16.60;33.20
80234;DHT22;69712;42.142;24.766;2023-12-28T12:37:40;16.30;34.40
80234;DHT22;69712;42.142;24.766;2023-12-28T12:40:06;16.00;35.20
80234;DHT22;69712;42.142;24.766;2023-12-28T12:42:33;15.50;36.20
80234;DHT22;69712;42.142;24.766;2023-12-28T12:44:59;15.30;37.10
80234;DHT22;69712;42.142;24.766;2023-12-28T12:47:25;14.90;37.70
80234;DHT22;69712;42.142;24.766;2023-12-28T12:49:55;14.90;37.90
80234;DHT22;69712;42.142;24.766;2023-12-28T12:52:21;15.20;37.70
80234;DHT22;69712;42.142;24.766;2023-12-28T12:54:58;15.50;36.90
80234;DHT22;69712;42.142;24.766;2023-12-28T12:57:27;14.90;37.70
80234;DHT22;69712;42.142;24.766;2023-12-28T12:59:53;14.90;38.20
80234;DHT22;69712;42.142;24.766;2023-12-28T13:02:25;15.20;37.50
80234;DHT22;69712;42.142;24.766;2023-12-28T13:04:53;14.90;38.00
80234;DHT22;69712;42.142;24.766;2023-12-28T13:07:19;15.10;38.30
80234;DHT22;69712;42.142;24.766;2023-12-28T13:09:45;15.10;37.80
80234;DHT22;69712;42.142;24.766;2023-12-28T13:12:11;15.00;37.90
80234;DHT22;69712;42.142;24.766;2023-12-28T13:14:36;14.90;37.60
80234;DHT22;69712;42.142;24.766;2023-12-28T13:17:02;15.00;37.20
80234;DHT22;69712;42.142;24.766;2023-12-28T13:19:28;14.90;37.50
80234;DHT22;69712;42.142;24.766;2023-12-28T13:21:54;15.20;38.00
80234;DHT22;69712;42.142;24.766;2023-12-28T13:24:20;15.30;37.90
80234;DHT22;69712;42.142;24.766;2023-12-28T13:26:46;15.30;37.50
80234;DHT22;69712;42.142;24.766;2023-12-28T13:29:11;15.20;37.50
80234;DHT22;69712;42.142;24.766;2023-12-28T13:31:37;15.20;37.70
80234;DHT22;69712;42.142;24.766;2023-12-28T13:34:03;15.30;38.10
80234;DHT22;69712;42.142;24.766;2023-12-28T13:36:29;15.20;38.00
80234;DHT22;69712;42.142;24.766;2023-12-28T13:38:55;15.20;37.90
80234;DHT22;69712;42.142;24.766;2023-12-28T13:41:21;15.40;37.70
80234;DHT22;69712;42.142;24.766;2023-12-28T13:43:46;15.40;38.00
80234;DHT22;69712;42.142;24.766;2023-12-28T13:46:12;15.30;38.20
80234;DHT22;69712;42.142;24.766;2023-12-28T13:48:38;15.20;38.40
80234;DHT22;69712;42.142;24.766;2023-12-28T13:51:08;15.30;38.30
80234;DHT22;69712;42.142;24.766;2023-12-28T13:53:34;15.30;38.10
80234;DHT22;69712;42.142;24.766;2023-12-28T13:56:06;15.20;38.70
80234;DHT22;69712;42.142;24.766;2023-12-28T13:58:34;15.00;38.70
80234;DHT22;69712;42.142;24.766;2023-12-28T14:01:00;15.10;38.90
80234;DHT22;69712;42.142;24.766;2023-12-28T14:03:26;15.00;38.90
80234;DHT22;69712;42.142;24.766;2023-12-28T14:05:51;15.00;39.30
80234;DHT22;69712;42.142;24.766;2023-12-28T14:08:17;15.00;39.50
80234;DHT22;69712;42.142;24.766;2023-12-28T14:10:43;14.80;39.70
80234;DHT22;69712;42.142;24.766;2023-12-28T14:13:09;14.80;40.00
80234;DHT22;69712;42.142;24.766;2023-12-28T14:15:35;14.70;40.50
80234;DHT22;69712;42.142;24.766;2023-12-28T14:18:01;14.60;40.80
80234;DHT22;69712;42.142;24.766;2023-12-28T14:20:30;14.60;40.90
80234;DHT22;69712;42.142;24.766;2023-12-28T14:22:56;14.50;40.80
80234;DHT22;69712;42.142;24.766;2023-12-28T14:25:22;14.40;41.10
80234;DHT22;69712;42.142;24.766;2023-12-28T14:27:48;14.30;41.40
80234;DHT22;69712;42.142;24.766;2023-12-28T14:30:15;14.10;41.60
80234;DHT22;69712;42.142;24.766;2023-12-28T14:32:41;14.10;42.30
80234;DHT22;69712;42.142;24.766;2023-12-28T14:35:07;14.10;42.60
80234;DHT22;69712;42.142;24.766;2023-12-28T14:37:33;14.00;42.50
80234;DHT22;69712;42.142;24.766;2023-12-28T14:39:59;14.00;42.30
80234;DHT22;69712;42.142;24.766;2023-12-28T14:42:32;14.10;42.60
80234;DHT22;69712;42.142;24.766;2023-12-28T14:44:59;14.00;43.50
80234;DHT22;69712;42.142;24.766;2023-12-28T14:47:27;14.00;43.50
80234;DHT22;69712;42.142;24.766;2023-12-28T14:49:53;14.20;42.60
80234;DHT22;69712;42.142;24.766;2023-12-28T14:52:21;14.40;42.60
80234;DHT22;69712;42.142;24.766;2023-12-28T14:54:46;14.40;42.20
80234;DHT22;69712;42.142;24.766;2023-12-28T14:57:12;14.30;42.70
80234;DHT22;69712;42.142;24.766;2023-12-28T14:59:38;14.20;43.00
80234;DHT22;69712;42.142;24.766;2023-12-28T15:02:04;14.10;43.20
80234;DHT22;69712;42.142;24.766;2023-12-28T15:04:29;14.20;43.30
80234;DHT22;69712;42.142;24.766;2023-12-28T15:06:55;14.10;42.50
80234;DHT22;69712;42.142;24.766;2023-12-28T15:09:21;14.20;43.00
80234;DHT22;69712;42.142;24.766;2023-12-28T15:11:47;14.20;42.70
80234;DHT22;69712;42.142;24.766;2023-12-28T15:14:13;14.20;43.10
80234;DHT22;69712;42.142;24.766;2023-12-28T15:16:39;14.00;43.40
80234;DHT22;69712;42.142;24.766;2023-12-28T15:19:05;13.90;42.80
80234;DHT22;69712;42.142;24.766;2023-12-28T15:21:32;13.70;43.00
80234;DHT22;69712;42.142;24.766;2023-12-28T15:24:01;13.60;43.70
80234;DHT22;69712;42.142;24.766;2023-12-28T15:26:28;13.30;44.70
80234;DHT22;69712;42.142;24.766;2023-12-28T15:28:53;13.10;44.90